createdAt,value
2018-05-31T00:00:09.119Z,0.00
2018-05-31T00:01:09.056Z,0.00
2018-05-31T00:02:08.983Z,0.00
2018-05-31T00:03:08.908Z,0.00
2018-05-31T00:04:29.824Z,0.00
2018-05-31T00:05:08.778Z,0.00
2018-05-31T00:06:08.708Z,0.00
2018-05-31T00:07:08.647Z,0.00
2018-05-31T00:08:08.566Z,0.00
2018-05-31T00:09:08.498Z,0.00
2018-05-31T00:10:29.413Z,0.00
2018-05-31T00:11:08.360Z,0.00
2018-05-31T00:12:08.291Z,0.00
2018-05-31T00:13:08.233Z,0.00
2018-05-31T00:14:08.160Z,0.00
2018-05-31T00:15:08.089Z,0.00
2018-05-31T00:16:29.003Z,0.00
2018-05-31T00:17:07.959Z,0.00
2018-05-31T00:18:07.888Z,0.00
2018-05-31T00:19:07.811Z,0.00
2018-05-31T00:20:07.753Z,0.00
2018-05-31T00:21:07.708Z,0.00
2018-05-31T00:22:28.593Z,0.00
2018-05-31T00:23:07.540Z,0.00
2018-05-31T00:24:07.480Z,0.00
2018-05-31T00:25:07.440Z,0.00
2018-05-31T00:26:07.331Z,0.00
2018-05-31T00:27:07.268Z,0.00
2018-05-31T00:28:28.192Z,0.00
2018-05-31T00:29:07.128Z,0.00
2018-05-31T00:30:07.059Z,0.00
2018-05-31T00:31:06.993Z,0.00
2018-05-31T00:32:06.919Z,0.00
2018-05-31T00:33:06.852Z,0.00
2018-05-31T00:34:27.778Z,0.00
2018-05-31T00:35:06.722Z,0.00
2018-05-31T00:36:06.647Z,0.00
2018-05-31T00:37:06.580Z,0.00
2018-05-31T00:38:06.507Z,0.00
2018-05-31T00:39:06.439Z,0.00
2018-05-31T00:40:27.371Z,0.00
2018-05-31T00:41:06.307Z,0.00
2018-05-31T00:42:06.231Z,0.00
2018-05-31T00:43:06.165Z,0.00
2018-05-31T00:44:06.107Z,0.00
2018-05-31T00:45:06.039Z,0.00
2018-05-31T00:46:26.950Z,0.00
2018-05-31T00:47:05.896Z,0.00
2018-05-31T00:48:05.822Z,0.00
2018-05-31T00:49:05.746Z,0.00
2018-05-31T00:50:05.707Z,0.00
2018-05-31T00:51:05.620Z,0.00
2018-05-31T00:52:26.533Z,0.00
2018-05-31T00:53:05.488Z,0.00
2018-05-31T00:54:05.417Z,0.00
2018-05-31T00:55:05.360Z,0.00
2018-05-31T00:56:05.275Z,0.00
2018-05-31T00:57:05.210Z,0.00
2018-05-31T00:58:26.122Z,0.00
2018-05-31T00:59:05.083Z,0.00
2018-05-31T01:00:04.995Z,0.00
2018-05-31T01:01:04.928Z,0.00
2018-05-31T01:02:04.858Z,0.00
2018-05-31T01:03:04.790Z,0.00
2018-05-31T01:04:25.717Z,0.00
2018-05-31T01:05:04.653Z,0.00
2018-05-31T01:06:04.583Z,0.00
2018-05-31T01:07:04.536Z,0.00
2018-05-31T01:08:04.442Z,0.00
2018-05-31T01:09:04.382Z,0.00
2018-05-31T01:10:25.303Z,0.00
2018-05-31T01:11:04.236Z,0.00
2018-05-31T01:12:04.175Z,0.00
2018-05-31T01:13:04.113Z,0.00
2018-05-31T01:14:04.027Z,0.00
2018-05-31T01:15:03.968Z,0.00
2018-05-31T01:16:24.871Z,0.00
2018-05-31T01:17:03.826Z,0.00
2018-05-31T01:18:03.750Z,0.00
2018-05-31T01:19:03.712Z,0.00
2018-05-31T01:20:03.621Z,0.00
2018-05-31T01:21:03.553Z,0.00
2018-05-31T01:22:24.466Z,0.00
2018-05-31T01:23:03.407Z,0.00
2018-05-31T01:24:03.343Z,0.00
2018-05-31T01:25:03.270Z,0.00
2018-05-31T01:26:03.199Z,0.00
2018-05-31T01:27:03.134Z,0.00
2018-05-31T01:28:24.051Z,0.00
2018-05-31T01:29:02.997Z,0.00
2018-05-31T01:30:02.925Z,0.00
2018-05-31T01:31:02.861Z,0.00
2018-05-31T01:32:02.845Z,0.00
2018-05-31T01:33:02.774Z,0.00
2018-05-31T01:34:23.636Z,0.00
2018-05-31T01:35:02.579Z,0.00
2018-05-31T01:36:02.514Z,0.00
2018-05-31T01:37:02.447Z,0.00
2018-05-31T01:38:02.385Z,0.00
2018-05-31T01:39:02.304Z,0.00
2018-05-31T01:40:23.227Z,0.00
2018-05-31T01:41:02.177Z,0.00
2018-05-31T01:42:02.100Z,0.00
2018-05-31T01:43:02.034Z,0.00
2018-05-31T01:44:01.969Z,0.00
2018-05-31T01:45:01.891Z,0.00
2018-05-31T01:46:22.811Z,0.00
2018-05-31T01:47:01.766Z,0.00
2018-05-31T01:48:01.702Z,0.00
2018-05-31T01:49:01.622Z,0.00
2018-05-31T01:50:01.550Z,0.00
2018-05-31T01:51:01.498Z,0.00
2018-05-31T01:52:22.461Z,0.00
2018-05-31T01:53:01.353Z,0.00
2018-05-31T01:54:01.275Z,0.00
2018-05-31T01:55:01.207Z,0.00
2018-05-31T01:56:01.139Z,0.00
2018-05-31T01:57:01.077Z,0.00
2018-05-31T01:58:21.975Z,0.00
2018-05-31T01:59:00.945Z,0.00
2018-05-31T02:00:00.869Z,0.00
2018-05-31T02:01:00.797Z,0.00
2018-05-31T02:02:00.733Z,0.00
2018-05-31T02:03:00.653Z,0.00
2018-05-31T02:04:21.598Z,0.00
2018-05-31T02:05:00.512Z,0.00
2018-05-31T02:06:00.438Z,0.00
2018-05-31T02:07:00.387Z,0.00
2018-05-31T02:08:00.305Z,0.00
2018-05-31T02:09:00.264Z,0.00
2018-05-31T02:10:21.146Z,0.00
2018-05-31T02:11:00.146Z,0.00
2018-05-31T02:12:00.037Z,0.00
2018-05-31T02:12:59.962Z,0.00
2018-05-31T02:13:59.891Z,0.00
2018-05-31T02:14:59.829Z,0.00
2018-05-31T02:16:20.759Z,0.00
2018-05-31T02:16:59.680Z,0.00
2018-05-31T02:17:59.611Z,0.00
2018-05-31T02:18:59.563Z,0.00
2018-05-31T02:19:59.481Z,0.00
2018-05-31T02:20:59.405Z,0.00
2018-05-31T02:22:20.330Z,0.00
2018-05-31T02:22:59.271Z,0.00
2018-05-31T02:23:59.201Z,0.00
2018-05-31T02:24:59.136Z,0.00
2018-05-31T02:25:59.079Z,0.00
2018-05-31T02:26:59.006Z,0.00
2018-05-31T02:28:19.915Z,0.00
2018-05-31T02:28:58.856Z,0.00
2018-05-31T02:29:58.792Z,0.00
2018-05-31T02:30:58.736Z,0.00
2018-05-31T02:31:58.647Z,0.00
2018-05-31T02:32:58.576Z,0.00
2018-05-31T02:34:19.518Z,0.00
2018-05-31T02:34:58.449Z,0.00
2018-05-31T02:35:58.377Z,0.00
2018-05-31T02:36:58.303Z,0.00
2018-05-31T02:37:58.237Z,0.00
2018-05-31T02:38:58.170Z,0.00
2018-05-31T02:40:19.113Z,0.00
2018-05-31T02:40:58.031Z,0.00
2018-05-31T02:41:57.963Z,0.00
2018-05-31T02:42:57.907Z,0.00
2018-05-31T02:43:57.822Z,0.00
2018-05-31T02:44:57.748Z,0.00
2018-05-31T02:46:18.695Z,0.00
2018-05-31T02:46:57.630Z,0.00
2018-05-31T02:47:57.545Z,0.00
2018-05-31T02:48:57.476Z,0.00
2018-05-31T02:49:57.405Z,0.00
2018-05-31T02:50:57.336Z,4.00
2018-05-31T02:52:18.272Z,4.00
2018-05-31T02:52:57.209Z,4.00
2018-05-31T02:53:57.141Z,0.00
2018-05-31T02:54:57.065Z,0.00
2018-05-31T02:55:56.998Z,4.00
2018-05-31T02:56:56.927Z,4.00
2018-05-31T02:58:17.847Z,4.00
2018-05-31T02:58:56.789Z,4.00
2018-05-31T02:59:56.720Z,8.00
2018-05-31T03:00:56.657Z,4.00
2018-05-31T03:01:56.587Z,8.00
2018-05-31T03:02:56.513Z,8.00
2018-05-31T03:04:17.424Z,4.00
2018-05-31T03:04:56.378Z,8.00
2018-05-31T03:05:56.299Z,12.00
2018-05-31T03:06:56.243Z,12.00
2018-05-31T03:07:56.163Z,12.00
2018-05-31T03:08:56.095Z,16.00
2018-05-31T03:10:17.012Z,20.00
2018-05-31T03:10:55.964Z,16.00
2018-05-31T03:11:55.890Z,20.00
2018-05-31T03:12:55.817Z,24.00
2018-05-31T03:13:55.750Z,24.00
2018-05-31T03:14:55.693Z,28.00
2018-05-31T03:16:16.597Z,32.00
2018-05-31T03:16:55.547Z,32.00
2018-05-31T03:17:55.481Z,40.00
2018-05-31T03:18:55.406Z,44.00
2018-05-31T03:19:55.337Z,48.00
2018-05-31T03:20:55.278Z,52.00
2018-05-31T03:22:16.187Z,56.00
2018-05-31T03:22:55.129Z,64.00
2018-05-31T03:23:55.065Z,68.00
2018-05-31T03:24:54.994Z,76.00
2018-05-31T03:25:54.915Z,84.00
2018-05-31T03:26:54.856Z,84.00
2018-05-31T03:28:15.768Z,88.00
2018-05-31T03:28:54.709Z,96.00
2018-05-31T03:29:54.650Z,100.00
2018-05-31T03:30:54.611Z,104.00
2018-05-31T03:31:54.503Z,112.00
2018-05-31T03:32:54.441Z,116.00
2018-05-31T03:34:15.353Z,120.00
2018-05-31T03:34:54.294Z,128.00
2018-05-31T03:35:54.235Z,132.00
2018-05-31T03:36:54.173Z,140.00
2018-05-31T03:37:54.092Z,148.00
2018-05-31T03:38:54.025Z,160.00
2018-05-31T03:40:14.947Z,172.00
2018-05-31T03:40:53.887Z,188.00
2018-05-31T03:41:53.817Z,204.00
2018-05-31T03:42:53.750Z,224.00
2018-05-31T03:43:53.677Z,248.00
2018-05-31T03:44:53.612Z,268.00
2018-05-31T03:46:14.524Z,292.00
2018-05-31T03:46:53.481Z,324.00
2018-05-31T03:47:53.418Z,348.00
2018-05-31T03:48:53.334Z,380.00
2018-05-31T03:49:53.263Z,404.00
2018-05-31T03:50:53.190Z,428.00
2018-05-31T03:52:14.108Z,452.00
2018-05-31T03:52:53.054Z,472.00
2018-05-31T03:53:53.000Z,492.00
2018-05-31T03:54:52.912Z,512.00
2018-05-31T03:55:52.851Z,528.00
2018-05-31T03:56:52.778Z,540.00
2018-05-31T03:58:13.695Z,548.00
2018-05-31T03:58:52.642Z,560.00
2018-05-31T03:59:52.567Z,576.00
2018-05-31T04:00:52.528Z,596.00
2018-05-31T04:01:52.436Z,620.00
2018-05-31T04:02:52.399Z,648.00
2018-05-31T04:04:13.286Z,684.00
2018-05-31T04:04:52.236Z,720.00
2018-05-31T04:05:52.154Z,756.00
2018-05-31T04:06:52.087Z,792.00
2018-05-31T04:07:52.028Z,832.00
2018-05-31T04:08:51.946Z,872.00
2018-05-31T04:10:12.883Z,912.00
2018-05-31T04:10:51.804Z,944.00
2018-05-31T04:11:51.743Z,984.00
2018-05-31T04:12:51.674Z,1024.00
2018-05-31T04:13:51.605Z,1068.00
2018-05-31T04:14:51.538Z,1108.00
2018-05-31T04:16:12.454Z,1128.00
2018-05-31T04:16:51.405Z,1164.00
2018-05-31T04:17:51.330Z,1200.00
2018-05-31T04:18:51.253Z,1236.00
2018-05-31T04:19:51.221Z,1260.00
2018-05-31T04:20:51.122Z,1272.00
2018-05-31T04:22:12.040Z,1260.00
2018-05-31T04:22:50.973Z,1248.00
2018-05-31T04:23:50.918Z,1232.00
2018-05-31T04:24:50.846Z,1220.00
2018-05-31T04:25:50.773Z,1204.00
2018-05-31T04:26:50.699Z,1184.00
2018-05-31T04:28:11.621Z,1172.00
2018-05-31T04:28:50.579Z,1184.00
2018-05-31T04:29:50.519Z,1216.00
2018-05-31T04:30:50.426Z,1256.00
2018-05-31T04:31:50.365Z,1288.00
2018-05-31T04:32:50.295Z,1284.00
2018-05-31T04:34:11.200Z,1260.00
2018-05-31T04:34:50.147Z,1236.00
2018-05-31T04:35:50.091Z,1216.00
2018-05-31T04:36:50.036Z,1220.00
2018-05-31T04:37:49.944Z,1228.00
2018-05-31T04:38:49.867Z,1256.00
2018-05-31T04:40:10.792Z,1296.00
2018-05-31T04:40:49.733Z,1340.00
2018-05-31T04:41:49.664Z,1384.00
2018-05-31T04:42:49.631Z,1420.00
2018-05-31T04:43:49.554Z,1452.00
2018-05-31T04:44:49.459Z,1508.00
2018-05-31T04:46:10.381Z,1548.00
2018-05-31T04:46:49.313Z,1588.00
2018-05-31T04:47:49.258Z,1640.00
2018-05-31T04:48:49.198Z,1676.00
2018-05-31T04:49:49.105Z,1804.00
2018-05-31T04:50:49.035Z,1896.00
2018-05-31T04:52:09.961Z,1972.00
2018-05-31T04:52:48.953Z,2008.00
2018-05-31T04:53:48.828Z,1992.00
2018-05-31T04:54:48.768Z,1956.00
2018-05-31T04:55:48.702Z,1936.00
2018-05-31T04:56:48.688Z,2036.00
2018-05-31T04:58:09.538Z,2092.00
2018-05-31T04:58:48.493Z,2144.00
2018-05-31T04:59:48.443Z,2172.00
2018-05-31T05:00:48.355Z,2128.00
2018-05-31T05:01:48.278Z,2032.00
2018-05-31T05:02:48.227Z,1980.00
2018-05-31T05:04:09.143Z,1968.00
2018-05-31T05:04:48.086Z,2036.00
2018-05-31T05:05:48.005Z,2092.00
2018-05-31T05:06:47.941Z,2108.00
2018-05-31T05:07:47.873Z,2092.00
2018-05-31T05:08:47.797Z,2064.00
2018-05-31T05:10:08.714Z,2056.00
2018-05-31T05:10:47.671Z,2080.00
2018-05-31T05:11:47.595Z,2120.00
2018-05-31T05:12:47.521Z,2152.00
2018-05-31T05:13:47.450Z,2204.00
2018-05-31T05:14:47.396Z,2124.00
2018-05-31T05:16:08.308Z,2032.00
2018-05-31T05:16:47.251Z,2012.00
2018-05-31T05:17:47.185Z,2064.00
2018-05-31T05:18:47.114Z,2176.00
2018-05-31T05:19:47.042Z,2084.00
2018-05-31T05:20:46.975Z,2128.00
2018-05-31T05:22:07.927Z,2128.00
2018-05-31T05:22:46.850Z,2260.00
2018-05-31T05:23:46.770Z,2304.00
2018-05-31T05:24:46.698Z,2272.00
2018-05-31T05:25:46.631Z,2332.00
2018-05-31T05:26:46.588Z,2340.00
2018-05-31T05:28:07.486Z,2348.00
2018-05-31T05:28:46.432Z,2376.00
2018-05-31T05:29:46.362Z,2364.00
2018-05-31T05:30:46.307Z,2352.00
2018-05-31T05:31:46.258Z,2448.00
2018-05-31T05:32:46.155Z,2556.00
2018-05-31T05:34:07.079Z,2600.00
2018-05-31T05:34:46.021Z,2660.00
2018-05-31T05:35:45.951Z,2688.00
2018-05-31T05:36:45.891Z,2720.00
2018-05-31T05:37:45.814Z,2724.00
2018-05-31T05:38:45.758Z,2724.00
2018-05-31T05:40:06.669Z,2636.00
2018-05-31T05:40:45.623Z,2548.00
2018-05-31T05:41:45.539Z,2476.00
2018-05-31T05:42:45.479Z,2400.00
2018-05-31T05:43:45.419Z,2408.00
2018-05-31T05:44:45.333Z,2368.00
2018-05-31T05:46:06.268Z,2316.00
2018-05-31T05:46:45.198Z,2308.00
2018-05-31T05:47:45.140Z,2308.00
2018-05-31T05:48:45.073Z,2240.00
2018-05-31T05:49:44.999Z,2204.00
2018-05-31T05:50:44.939Z,2184.00
2018-05-31T05:52:05.851Z,2132.00
2018-05-31T05:52:44.793Z,2092.00
2018-05-31T05:53:44.744Z,2056.00
2018-05-31T05:54:44.667Z,2056.00
2018-05-31T05:55:44.590Z,2056.00
2018-05-31T05:56:44.521Z,2072.00
2018-05-31T05:58:05.449Z,2076.00
2018-05-31T05:58:44.385Z,2076.00
2018-05-31T05:59:44.328Z,2088.00
2018-05-31T06:00:44.261Z,2140.00
2018-05-31T06:01:44.180Z,2212.00
2018-05-31T06:02:44.117Z,2264.00
2018-05-31T06:04:05.050Z,2296.00
2018-05-31T06:04:43.976Z,2288.00
2018-05-31T06:05:43.917Z,2300.00
2018-05-31T06:06:43.846Z,2368.00
2018-05-31T06:07:43.782Z,2440.00
2018-05-31T06:08:43.709Z,2472.00
2018-05-31T06:10:04.660Z,2460.00
2018-05-31T06:10:43.570Z,2480.00
2018-05-31T06:11:43.503Z,2584.00
2018-05-31T06:12:43.443Z,2796.00
2018-05-31T06:13:43.374Z,3068.00
2018-05-31T06:14:43.371Z,3236.00
2018-05-31T06:16:04.227Z,3292.00
2018-05-31T06:16:43.169Z,3416.00
2018-05-31T06:17:43.105Z,3472.00
2018-05-31T06:18:43.029Z,3544.00
2018-05-31T06:19:43.000Z,3572.00
2018-05-31T06:20:42.893Z,3532.00
2018-05-31T06:22:03.857Z,3552.00
2018-05-31T06:22:42.760Z,3680.00
2018-05-31T06:23:42.695Z,3792.00
2018-05-31T06:24:42.621Z,3848.00
2018-05-31T06:25:42.569Z,4008.00
2018-05-31T06:26:42.484Z,4176.00
2018-05-31T06:28:03.414Z,4360.00
2018-05-31T06:28:42.352Z,4380.00
2018-05-31T06:29:42.282Z,4244.00
2018-05-31T06:30:42.222Z,4164.00
2018-05-31T06:31:42.163Z,4324.00
2018-05-31T06:32:42.082Z,4580.00
2018-05-31T06:34:03.008Z,4620.00
2018-05-31T06:34:41.948Z,4576.00
2018-05-31T06:35:41.882Z,4624.00
2018-05-31T06:36:41.829Z,4524.00
2018-05-31T06:37:41.754Z,4744.00
2018-05-31T06:38:41.682Z,4532.00
2018-05-31T06:40:02.600Z,4288.00
2018-05-31T06:40:41.550Z,4324.00
2018-05-31T06:41:41.481Z,4388.00
2018-05-31T06:42:41.415Z,4388.00
2018-05-31T06:43:41.349Z,4368.00
2018-05-31T06:44:41.280Z,4096.00
2018-05-31T06:46:02.213Z,3828.00
2018-05-31T06:46:41.144Z,3644.00
2018-05-31T06:47:41.081Z,3620.00
2018-05-31T06:48:41.015Z,4028.00
2018-05-31T06:49:40.943Z,4516.00
2018-05-31T06:50:40.879Z,4888.00
2018-05-31T06:52:01.799Z,5100.00
2018-05-31T06:52:40.752Z,5248.00
2018-05-31T06:53:40.682Z,5516.00
2018-05-31T06:54:40.675Z,5512.00
2018-05-31T06:55:40.541Z,5452.00
2018-05-31T06:56:40.491Z,5260.00
2018-05-31T06:58:01.396Z,5204.00
2018-05-31T06:58:40.344Z,5192.00
2018-05-31T06:59:40.283Z,5124.00
2018-05-31T07:00:40.235Z,4612.00
2018-05-31T07:01:40.143Z,4416.00
2018-05-31T07:02:40.084Z,4508.00
2018-05-31T07:04:01.037Z,4752.00
2018-05-31T07:04:39.940Z,5020.00
2018-05-31T07:05:39.875Z,5360.00
2018-05-31T07:06:39.814Z,5560.00
2018-05-31T07:07:39.747Z,5536.00
2018-05-31T07:08:39.674Z,5468.00
2018-05-31T07:10:00.596Z,5376.00
2018-05-31T07:10:39.547Z,5204.00
2018-05-31T07:11:39.482Z,5220.00
2018-05-31T07:12:39.417Z,5388.00
2018-05-31T07:13:39.367Z,5464.00
2018-05-31T07:14:39.281Z,5488.00
2018-05-31T07:16:00.226Z,5440.00
2018-05-31T07:16:39.147Z,5356.00
2018-05-31T07:17:39.085Z,5268.00
2018-05-31T07:18:39.013Z,5172.00
2018-05-31T07:19:38.956Z,5144.00
2018-05-31T07:20:38.897Z,5176.00
2018-05-31T07:22:00.406Z,5340.00
2018-05-31T07:22:38.750Z,5484.00
2018-05-31T07:23:38.726Z,5600.00
2018-05-31T07:24:38.619Z,5624.00
2018-05-31T07:25:38.566Z,5532.00
2018-05-31T07:26:38.485Z,5300.00
2018-05-31T07:27:59.416Z,5056.00
2018-05-31T07:28:38.354Z,4924.00
2018-05-31T07:29:38.288Z,4780.00
2018-05-31T07:30:38.233Z,4708.00
2018-05-31T07:31:38.196Z,4828.00
2018-05-31T07:32:38.118Z,4808.00
2018-05-31T07:33:59.017Z,4860.00
2018-05-31T07:34:37.960Z,4880.00
2018-05-31T07:35:37.899Z,4928.00
2018-05-31T07:36:37.822Z,5104.00
2018-05-31T07:37:37.764Z,5300.00
2018-05-31T07:38:37.706Z,5432.00
2018-05-31T07:39:58.627Z,5476.00
2018-05-31T07:40:37.563Z,5492.00
2018-05-31T07:41:37.495Z,5612.00
2018-05-31T07:42:37.429Z,5360.00
2018-05-31T07:43:37.370Z,4944.00
2018-05-31T07:44:37.297Z,4844.00
2018-05-31T07:45:58.221Z,4836.00
2018-05-31T07:46:37.164Z,4656.00
2018-05-31T07:47:37.106Z,4484.00
2018-05-31T07:48:37.038Z,4692.00
2018-05-31T07:49:36.982Z,5028.00
2018-05-31T07:50:36.901Z,5476.00
2018-05-31T07:51:57.822Z,5932.00
2018-05-31T07:52:36.769Z,6276.00
2018-05-31T07:53:36.705Z,6440.00
2018-05-31T07:54:36.632Z,6228.00
2018-05-31T07:55:36.573Z,5920.00
2018-05-31T07:56:36.511Z,5616.00
2018-05-31T07:57:57.425Z,5396.00
2018-05-31T07:58:36.379Z,5240.00
2018-05-31T07:59:36.316Z,5188.00
2018-05-31T08:00:36.245Z,5252.00
2018-05-31T08:01:36.199Z,5184.00
2018-05-31T08:02:36.154Z,4920.00
2018-05-31T08:03:57.034Z,4560.00
2018-05-31T08:04:35.981Z,4320.00
2018-05-31T08:05:35.917Z,4092.00
2018-05-31T08:06:35.854Z,4020.00
2018-05-31T08:07:35.785Z,4132.00
2018-05-31T08:08:35.739Z,4216.00
2018-05-31T08:09:56.652Z,4136.00
2018-05-31T08:10:35.583Z,4004.00
2018-05-31T08:11:35.512Z,4052.00
2018-05-31T08:12:35.464Z,4152.00
2018-05-31T08:13:35.389Z,4072.00
2018-05-31T08:14:35.320Z,3928.00
2018-05-31T08:15:56.263Z,3784.00
2018-05-31T08:16:35.234Z,3740.00
2018-05-31T08:17:35.130Z,3792.00
2018-05-31T08:18:35.067Z,3968.00
2018-05-31T08:19:34.991Z,4148.00
2018-05-31T08:20:34.949Z,4540.00
2018-05-31T08:21:55.848Z,5196.00
2018-05-31T08:22:34.816Z,5660.00
2018-05-31T08:23:34.753Z,5892.00
2018-05-31T08:24:34.668Z,5980.00
2018-05-31T08:25:34.611Z,5992.00
2018-05-31T08:26:34.550Z,6016.00
2018-05-31T08:27:55.455Z,5964.00
2018-05-31T08:28:34.399Z,5812.00
2018-05-31T08:29:34.331Z,5496.00
2018-05-31T08:30:34.261Z,5040.00
2018-05-31T08:31:34.324Z,4656.00
2018-05-31T08:32:34.132Z,4464.00
2018-05-31T08:33:55.060Z,4492.00
2018-05-31T08:34:34.003Z,4592.00
2018-05-31T08:35:33.939Z,4752.00
2018-05-31T08:36:33.872Z,4896.00
2018-05-31T08:37:33.818Z,5096.00
2018-05-31T08:38:33.739Z,5200.00
2018-05-31T08:39:54.671Z,4972.00
2018-05-31T08:40:33.614Z,4428.00
2018-05-31T08:41:33.538Z,3976.00
2018-05-31T08:42:33.479Z,3708.00
2018-05-31T08:43:33.413Z,3660.00
2018-05-31T08:44:33.345Z,3808.00
2018-05-31T08:45:54.273Z,4092.00
2018-05-31T08:46:33.216Z,4608.00
2018-05-31T08:47:33.150Z,5444.00
2018-05-31T08:48:33.081Z,6284.00
2018-05-31T08:49:33.028Z,6664.00
2018-05-31T08:50:32.954Z,6952.00
2018-05-31T08:51:53.878Z,6948.00
2018-05-31T08:52:32.826Z,6736.00
2018-05-31T08:53:32.749Z,6444.00
2018-05-31T08:54:32.685Z,6136.00
2018-05-31T08:55:32.634Z,5788.00
2018-05-31T08:56:32.568Z,5752.00
2018-05-31T08:57:53.486Z,6272.00
2018-05-31T08:58:32.429Z,6828.00
2018-05-31T08:59:32.351Z,6816.00
2018-05-31T09:00:32.289Z,6372.00
2018-05-31T09:01:32.241Z,5872.00
2018-05-31T09:02:32.164Z,5196.00
2018-05-31T09:03:53.078Z,4748.00
2018-05-31T09:04:32.022Z,4740.00
2018-05-31T09:05:31.964Z,5160.00
2018-05-31T09:06:31.912Z,5724.00
2018-05-31T09:07:31.835Z,6564.00
2018-05-31T09:08:31.771Z,7552.00
2018-05-31T09:09:52.679Z,8948.00
2018-05-31T09:10:31.634Z,11488.00
2018-05-31T09:11:31.563Z,12972.00
2018-05-31T09:12:31.505Z,13088.00
2018-05-31T09:13:31.445Z,19840.00
2018-05-31T09:14:31.361Z,28320.00
2018-05-31T09:15:52.289Z,15572.00
2018-05-31T09:16:31.237Z,14932.00
2018-05-31T09:17:31.171Z,23200.00
2018-05-31T09:18:31.109Z,22464.00
2018-05-31T09:19:31.043Z,24672.00
2018-05-31T09:20:30.984Z,35936.00
2018-05-31T09:21:51.887Z,34944.00
2018-05-31T09:22:30.862Z,51616.00
2018-05-31T09:23:30.772Z,33216.00
2018-05-31T09:24:30.710Z,76928.00
2018-05-31T09:25:30.655Z,59712.00
2018-05-31T09:26:30.575Z,19904.00
2018-05-31T09:27:51.498Z,13500.00
2018-05-31T09:28:30.477Z,17280.00
2018-05-31T09:29:30.388Z,78944.00
2018-05-31T09:30:30.333Z,75648.00
2018-05-31T09:31:30.262Z,73184.00
2018-05-31T09:32:30.194Z,72896.00
2018-05-31T09:33:51.122Z,73536.00
2018-05-31T09:34:30.082Z,74112.00
2018-05-31T09:35:30.004Z,74976.00
2018-05-31T09:36:29.951Z,74048.00
2018-05-31T09:37:29.891Z,73888.00
2018-05-31T09:38:29.834Z,72544.00
2018-05-31T09:39:50.757Z,72512.00
2018-05-31T09:40:29.698Z,72288.00
2018-05-31T09:41:29.638Z,71328.00
2018-05-31T09:42:29.581Z,70624.00
2018-05-31T09:43:29.520Z,70784.00
2018-05-31T09:44:29.458Z,72256.00
2018-05-31T09:45:50.390Z,72512.00
2018-05-31T09:46:29.365Z,72576.00
2018-05-31T09:47:29.286Z,72288.00
2018-05-31T09:48:29.228Z,70400.00
2018-05-31T09:49:29.172Z,70528.00
2018-05-31T09:50:29.115Z,69408.00
2018-05-31T09:51:50.042Z,58272.00
2018-05-31T09:52:29.011Z,63168.00
2018-05-31T09:53:28.943Z,60480.00
2018-05-31T09:54:28.878Z,34816.00
2018-05-31T09:55:28.824Z,45792.00
2018-05-31T09:56:28.770Z,31136.00
2018-05-31T09:57:49.698Z,47648.00
2018-05-31T09:58:28.669Z,41792.00
2018-05-31T09:59:28.604Z,33632.00
2018-05-31T10:00:28.550Z,32512.00
2018-05-31T10:01:28.488Z,25248.00
2018-05-31T10:02:28.438Z,42528.00
2018-05-31T10:03:49.372Z,54560.00
2018-05-31T10:04:28.315Z,63840.00
2018-05-31T10:05:28.274Z,47264.00
2018-05-31T10:06:28.203Z,55680.00
2018-05-31T10:07:28.149Z,32128.00
2018-05-31T10:08:28.079Z,37248.00
2018-05-31T10:09:49.018Z,45696.00
2018-05-31T10:10:27.976Z,43808.00
2018-05-31T10:11:27.907Z,44672.00
2018-05-31T10:12:27.853Z,36736.00
2018-05-31T10:13:27.795Z,41600.00
2018-05-31T10:14:27.737Z,71808.00
2018-05-31T10:15:48.667Z,77248.00
2018-05-31T10:16:27.619Z,76032.00
2018-05-31T10:17:27.569Z,75424.00
2018-05-31T10:18:27.502Z,75104.00
2018-05-31T10:19:27.446Z,74816.00
2018-05-31T10:20:27.426Z,74592.00
2018-05-31T10:21:48.319Z,74816.00
2018-05-31T10:22:27.290Z,75072.00
2018-05-31T10:23:27.229Z,75936.00
2018-05-31T10:24:27.175Z,77984.00
2018-05-31T10:25:27.111Z,78848.00
2018-05-31T10:26:27.048Z,79136.00
2018-05-31T10:27:47.983Z,78848.00
2018-05-31T10:28:26.947Z,79200.00
2018-05-31T10:29:26.875Z,79584.00
2018-05-31T10:30:26.830Z,76512.00
2018-05-31T10:31:26.767Z,75520.00
2018-05-31T10:32:26.710Z,74784.00
2018-05-31T10:33:47.661Z,74592.00
2018-05-31T10:34:26.603Z,72864.00
2018-05-31T10:35:26.552Z,74144.00
2018-05-31T10:36:26.511Z,74048.00
2018-05-31T10:37:26.439Z,74944.00
2018-05-31T10:38:26.384Z,77344.00
2018-05-31T10:39:47.321Z,79392.00
2018-05-31T10:40:26.281Z,76096.00
2018-05-31T10:41:26.221Z,56384.00
2018-05-31T10:42:26.167Z,22976.00
2018-05-31T10:43:26.117Z,23744.00
2018-05-31T10:44:26.059Z,8536.00
2018-05-31T10:45:46.997Z,10064.00
2018-05-31T10:46:25.959Z,7600.00
2018-05-31T10:47:25.890Z,7648.00
2018-05-31T10:48:25.833Z,7804.00
2018-05-31T10:49:25.775Z,9748.00
2018-05-31T10:50:25.729Z,14360.00
2018-05-31T10:51:46.658Z,12956.00
2018-05-31T10:52:25.606Z,25152.00
2018-05-31T10:53:25.547Z,28512.00
2018-05-31T10:54:25.487Z,9424.00
2018-05-31T10:55:25.459Z,9800.00
2018-05-31T10:56:25.376Z,9616.00
2018-05-31T10:57:46.309Z,22368.00
2018-05-31T10:58:25.248Z,38656.00
2018-05-31T10:59:25.191Z,11936.00
2018-05-31T11:00:25.135Z,8560.00
2018-05-31T11:01:25.075Z,8776.00
2018-05-31T11:02:25.018Z,9616.00
2018-05-31T11:03:45.941Z,13464.00
2018-05-31T11:04:24.892Z,10792.00
2018-05-31T11:05:24.825Z,10000.00
2018-05-31T11:06:24.762Z,11068.00
2018-05-31T11:07:24.705Z,9260.00
2018-05-31T11:08:24.641Z,9672.00
2018-05-31T11:09:45.569Z,9108.00
2018-05-31T11:10:24.522Z,8748.00
2018-05-31T11:11:24.499Z,9876.00
2018-05-31T11:12:24.387Z,12852.00
2018-05-31T11:13:24.331Z,17376.00
2018-05-31T11:14:24.271Z,44320.00
2018-05-31T11:15:45.201Z,65216.00
2018-05-31T11:16:24.145Z,65248.00
2018-05-31T11:17:24.095Z,52192.00
2018-05-31T11:18:24.020Z,53120.00
2018-05-31T11:19:23.974Z,41024.00
2018-05-31T11:20:23.905Z,24928.00
2018-05-31T11:21:44.903Z,71872.00
2018-05-31T11:22:23.783Z,26080.00
2018-05-31T11:23:23.714Z,26912.00
2018-05-31T11:24:23.669Z,37088.00
2018-05-31T11:25:23.603Z,36128.00
2018-05-31T11:26:23.536Z,17600.00
2018-05-31T11:27:44.456Z,23680.00
2018-05-31T11:28:23.416Z,15576.00
2018-05-31T11:29:23.355Z,18016.00
2018-05-31T11:30:23.297Z,19136.00
2018-05-31T11:31:23.229Z,18688.00
2018-05-31T11:32:23.196Z,18144.00
2018-05-31T11:33:44.098Z,16660.00
2018-05-31T11:34:23.051Z,16444.00
2018-05-31T11:35:22.990Z,18336.00
2018-05-31T11:36:22.931Z,15280.00
2018-05-31T11:37:22.869Z,17856.00
2018-05-31T11:38:22.810Z,19136.00
2018-05-31T11:39:43.766Z,18688.00
2018-05-31T11:40:23.515Z,15456.00
2018-05-31T11:41:22.633Z,15796.00
2018-05-31T11:42:22.607Z,19296.00
2018-05-31T11:43:22.508Z,19552.00
2018-05-31T11:44:22.470Z,19136.00
2018-05-31T11:45:43.368Z,19136.00
2018-05-31T11:46:22.358Z,20192.00
2018-05-31T11:47:22.254Z,18976.00
2018-05-31T11:48:22.193Z,20128.00
2018-05-31T11:49:22.146Z,18112.00
2018-05-31T11:50:22.073Z,32032.00
2018-05-31T11:51:43.004Z,33056.00
2018-05-31T11:52:21.948Z,44448.00
2018-05-31T11:53:21.886Z,29088.00
2018-05-31T11:54:21.846Z,26528.00
2018-05-31T11:55:21.869Z,35456.00
2018-05-31T11:56:21.708Z,33376.00
2018-05-31T11:57:42.640Z,30656.00
2018-05-31T11:58:21.603Z,27296.00
2018-05-31T11:59:21.526Z,15416.00
2018-05-31T12:00:21.478Z,13244.00
2018-05-31T12:01:21.397Z,13560.00
2018-05-31T12:02:21.370Z,8960.00
2018-05-31T12:03:42.314Z,13568.00
2018-05-31T12:04:21.216Z,14444.00
2018-05-31T12:05:21.164Z,7888.00
2018-05-31T12:06:21.096Z,9576.00
2018-05-31T12:07:21.041Z,7996.00
2018-05-31T12:08:21.016Z,8348.00
2018-05-31T12:09:41.888Z,9928.00
2018-05-31T12:10:20.855Z,9452.00
2018-05-31T12:11:20.781Z,8300.00
2018-05-31T12:12:20.736Z,8420.00
2018-05-31T12:13:20.667Z,8828.00
2018-05-31T12:14:20.589Z,9072.00
2018-05-31T12:15:41.521Z,9360.00
2018-05-31T12:16:20.488Z,9408.00
2018-05-31T12:17:20.468Z,9760.00
2018-05-31T12:18:20.360Z,9952.00
2018-05-31T12:19:20.281Z,10048.00